sensor_id;sensor_type;location;lat;lon;timestamp;P1;durP1;ratioP1;P2;durP2;ratioP2
44165;SDS011;30476;53.468;9.826;2022-11-15T00:01:50;33.70;;;22.57;;
44165;SDS011;30476;53.468;9.826;2022-11-15T00:04:16;31.20;;;21.97;;
44165;SDS011;30476;53.468;9.826;2022-11-15T00:06:42;33.97;;;22.47;;
44165;SDS011;30476;53.468;9.826;2022-11-15T00:09:07;35.97;;;22.73;;
44165;SDS011;30476;53.468;9.826;2022-11-15T00:11:33;29.80;;;21.23;;
44165;SDS011;30476;53.468;9.826;2022-11-15T00:13:59;27.27;;;19.70;;
44165;SDS011;30476;53.468;9.826;2022-11-15T00:16:27;30.43;;;21.10;;
44165;SDS011;30476;53.468;9.826;2022-11-15T00:18:53;32.03;;;20.63;;
44165;SDS011;30476;53.468;9.826;2022-11-15T00:21:19;29.60;;;19.77;;
44165;SDS011;30476;53.468;9.826;2022-11-15T00:23:45;30.27;;;21.97;;
44165;SDS011;30476;53.468;9.826;2022-11-15T00:26:12;31.10;;;20.83;;
44165;SDS011;30476;53.468;9.826;2022-11-15T00:28:39;30.53;;;21.70;;
44165;SDS011;30476;53.468;9.826;2022-11-15T00:31:06;30.93;;;20.63;;
44165;SDS011;30476;53.468;9.826;2022-11-15T00:33:34;28.87;;;19.40;;
44165;SDS011;30476;53.468;9.826;2022-11-15T00:36:01;30.60;;;19.77;;
44165;SDS011;30476;53.468;9.826;2022-11-15T00:38:35;28.80;;;20.30;;
44165;SDS011;30476;53.468;9.826;2022-11-15T00:41:03;26.43;;;18.73;;
44165;SDS011;30476;53.468;9.826;2022-11-15T00:43:29;30.80;;;19.63;;
44165;SDS011;30476;53.468;9.826;2022-11-15T00:45:55;26.23;;;18.43;;
44165;SDS011;30476;53.468;9.826;2022-11-15T00:48:22;25.27;;;19.13;;
44165;SDS011;30476;53.468;9.826;2022-11-15T00:50:48;30.80;;;21.30;;
44165;SDS011;30476;53.468;9.826;2022-11-15T00:53:14;32.97;;;22.33;;
44165;SDS011;30476;53.468;9.826;2022-11-15T00:55:40;25.90;;;19.03;;
44165;SDS011;30476;53.468;9.826;2022-11-15T00:58:06;24.33;;;18.07;;
44165;SDS011;30476;53.468;9.826;2022-11-15T01:00:32;25.90;;;18.20;;
44165;SDS011;30476;53.468;9.826;2022-11-15T01:02:58;25.30;;;17.37;;
44165;SDS011;30476;53.468;9.826;2022-11-15T01:05:25;24.53;;;18.57;;
44165;SDS011;30476;53.468;9.826;2022-11-15T01:07:54;28.03;;;19.60;;
44165;SDS011;30476;53.468;9.826;2022-11-15T01:10:21;25.67;;;18.37;;
44165;SDS011;30476;53.468;9.826;2022-11-15T01:12:48;26.03;;;18.60;;
44165;SDS011;30476;53.468;9.826;2022-11-15T01:15:14;22.50;;;16.30;;
44165;SDS011;30476;53.468;9.826;2022-11-15T01:17:40;23.80;;;17.17;;
44165;SDS011;30476;53.468;9.826;2022-11-15T01:20:06;21.90;;;16.53;;
44165;SDS011;30476;53.468;9.826;2022-11-15T01:22:33;23.13;;;15.77;;
44165;SDS011;30476;53.468;9.826;2022-11-15T01:24:59;21.60;;;16.97;;
44165;SDS011;30476;53.468;9.826;2022-11-15T01:27:25;22.17;;;16.00;;
44165;SDS011;30476;53.468;9.826;2022-11-15T01:29:50;20.80;;;15.70;;
44165;SDS011;30476;53.468;9.826;2022-11-15T01:32:16;21.07;;;16.80;;
44165;SDS011;30476;53.468;9.826;2022-11-15T01:34:42;22.77;;;16.30;;
44165;SDS011;30476;53.468;9.826;2022-11-15T01:37:08;19.93;;;15.40;;
44165;SDS011;30476;53.468;9.826;2022-11-15T01:39:34;22.93;;;16.30;;
44165;SDS011;30476;53.468;9.826;2022-11-15T01:42:00;22.10;;;16.00;;
44165;SDS011;30476;53.468;9.826;2022-11-15T01:47:09;24.50;;;17.60;;
44165;SDS011;30476;53.468;9.826;2022-11-15T01:49:47;22.27;;;16.57;;
44165;SDS011;30476;53.468;9.826;2022-11-15T01:52:20;23.17;;;16.20;;
44165;SDS011;30476;53.468;9.826;2022-11-15T01:54:50;22.47;;;15.73;;
44165;SDS011;30476;53.468;9.826;2022-11-15T01:57:21;24.70;;;18.40;;
44165;SDS011;30476;53.468;9.826;2022-11-15T01:59:47;23.70;;;15.70;;
44165;SDS011;30476;53.468;9.826;2022-11-15T02:02:13;21.23;;;15.83;;
44165;SDS011;30476;53.468;9.826;2022-11-15T02:04:41;20.43;;;16.23;;
44165;SDS011;30476;53.468;9.826;2022-11-15T02:07:09;23.87;;;16.10;;
44165;SDS011;30476;53.468;9.826;2022-11-15T02:09:37;23.10;;;17.70;;
44165;SDS011;30476;53.468;9.826;2022-11-15T02:12:05;24.03;;;16.90;;
44165;SDS011;30476;53.468;9.826;2022-11-15T02:14:33;21.43;;;17.17;;
44165;SDS011;30476;53.468;9.826;2022-11-15T02:30:54;27.27;;;15.83;;
44165;SDS011;30476;53.468;9.826;2022-11-15T02:36:23;20.13;;;15.63;;
44165;SDS011;30476;53.468;9.826;2022-11-15T02:39:08;18.77;;;15.73;;
44165;SDS011;30476;53.468;9.826;2022-11-15T02:41:47;21.87;;;15.83;;
44165;SDS011;30476;53.468;9.826;2022-11-15T02:44:39;25.57;;;16.03;;
44165;SDS011;30476;53.468;9.826;2022-11-15T02:47:11;20.23;;;15.03;;
44165;SDS011;30476;53.468;9.826;2022-11-15T02:49:51;19.30;;;14.33;;
44165;SDS011;30476;53.468;9.826;2022-11-15T02:52:19;17.97;;;14.30;;
44165;SDS011;30476;53.468;9.826;2022-11-15T02:54:56;23.23;;;14.80;;
44165;SDS011;30476;53.468;9.826;2022-11-15T02:57:30;20.10;;;14.87;;
44165;SDS011;30476;53.468;9.826;2022-11-15T03:05:25;18.87;;;14.30;;
44165;SDS011;30476;53.468;9.826;2022-11-15T03:08:18;18.50;;;12.87;;
44165;SDS011;30476;53.468;9.826;2022-11-15T03:13:40;19.67;;;14.30;;
44165;SDS011;30476;53.468;9.826;2022-11-15T03:21:47;18.93;;;13.47;;
44165;SDS011;30476;53.468;9.826;2022-11-15T03:24:15;20.47;;;14.90;;
44165;SDS011;30476;53.468;9.826;2022-11-15T03:26:45;19.40;;;13.47;;
44165;SDS011;30476;53.468;9.826;2022-11-15T03:29:22;18.73;;;13.33;;
44165;SDS011;30476;53.468;9.826;2022-11-15T03:32:28;21.07;;;13.63;;
44165;SDS011;30476;53.468;9.826;2022-11-15T03:34:58;13.67;;;11.17;;
44165;SDS011;30476;53.468;9.826;2022-11-15T03:40:06;17.70;;;13.00;;
44165;SDS011;30476;53.468;9.826;2022-11-15T03:42:46;17.40;;;12.43;;
44165;SDS011;30476;53.468;9.826;2022-11-15T03:45:23;19.93;;;14.17;;
44165;SDS011;30476;53.468;9.826;2022-11-15T03:47:58;23.83;;;14.80;;
44165;SDS011;30476;53.468;9.826;2022-11-15T03:50:32;22.97;;;15.00;;
44165;SDS011;30476;53.468;9.826;2022-11-15T03:52:59;17.30;;;13.13;;
44165;SDS011;30476;53.468;9.826;2022-11-15T03:55:26;17.83;;;14.17;;
44165;SDS011;30476;53.468;9.826;2022-11-15T03:57:53;20.67;;;14.33;;
44165;SDS011;30476;53.468;9.826;2022-11-15T04:00:22;19.77;;;14.90;;
44165;SDS011;30476;53.468;9.826;2022-11-15T04:02:48;20.47;;;14.67;;
44165;SDS011;30476;53.468;9.826;2022-11-15T04:05:14;24.80;;;16.30;;
44165;SDS011;30476;53.468;9.826;2022-11-15T04:07:40;20.53;;;15.60;;
44165;SDS011;30476;53.468;9.826;2022-11-15T04:10:06;21.37;;;16.23;;
44165;SDS011;30476;53.468;9.826;2022-11-15T04:12:33;21.23;;;14.93;;
44165;SDS011;30476;53.468;9.826;2022-11-15T04:15:05;23.60;;;17.70;;
44165;SDS011;30476;53.468;9.826;2022-11-15T04:17:38;22.50;;;17.40;;
44165;SDS011;30476;53.468;9.826;2022-11-15T04:20:26;24.80;;;18.73;;
44165;SDS011;30476;53.468;9.826;2022-11-15T04:26:02;23.60;;;17.30;;
44165;SDS011;30476;53.468;9.826;2022-11-15T04:28:30;21.27;;;16.43;;
44165;SDS011;30476;53.468;9.826;2022-11-15T04:30:56;24.63;;;16.87;;
44165;SDS011;30476;53.468;9.826;2022-11-15T04:33:22;26.90;;;16.83;;
44165;SDS011;30476;53.468;9.826;2022-11-15T04:35:48;23.97;;;17.27;;
44165;SDS011;30476;53.468;9.826;2022-11-15T04:38:34;26.07;;;17.17;;
44165;SDS011;30476;53.468;9.826;2022-11-15T04:41:01;24.03;;;16.33;;
44165;SDS011;30476;53.468;9.826;2022-11-15T04:43:27;23.90;;;16.03;;
44165;SDS011;30476;53.468;9.826;2022-11-15T04:45:53;20.40;;;16.13;;
44165;SDS011;30476;53.468;9.826;2022-11-15T04:48:19;23.17;;;16.30;;
44165;SDS011;30476;53.468;9.826;2022-11-15T04:50:47;25.50;;;17.10;;
44165;SDS011;30476;53.468;9.826;2022-11-15T04:53:13;22.13;;;15.80;;
44165;SDS011;30476;53.468;9.826;2022-11-15T04:55:39;23.90;;;16.50;;
44165;SDS011;30476;53.468;9.826;2022-11-15T04:58:05;24.37;;;16.60;;
44165;SDS011;30476;53.468;9.826;2022-11-15T05:00:31;29.47;;;16.97;;
44165;SDS011;30476;53.468;9.826;2022-11-15T05:02:57;25.77;;;17.50;;
44165;SDS011;30476;53.468;9.826;2022-11-15T05:05:41;27.77;;;18.23;;
44165;SDS011;30476;53.468;9.826;2022-11-15T05:08:07;25.17;;;16.60;;
44165;SDS011;30476;53.468;9.826;2022-11-15T05:10:32;22.93;;;17.10;;
44165;SDS011;30476;53.468;9.826;2022-11-15T05:12:58;24.00;;;17.63;;
44165;SDS011;30476;53.468;9.826;2022-11-15T05:15:24;24.37;;;17.17;;
44165;SDS011;30476;53.468;9.826;2022-11-15T05:17:50;26.53;;;18.23;;
44165;SDS011;30476;53.468;9.826;2022-11-15T05:20:16;27.00;;;18.07;;
44165;SDS011;30476;53.468;9.826;2022-11-15T05:22:42;25.67;;;16.10;;
44165;SDS011;30476;53.468;9.826;2022-11-15T05:25:08;22.30;;;15.80;;
44165;SDS011;30476;53.468;9.826;2022-11-15T05:27:34;24.27;;;16.53;;
44165;SDS011;30476;53.468;9.826;2022-11-15T05:30:00;24.13;;;17.10;;
44165;SDS011;30476;53.468;9.826;2022-11-15T05:32:25;24.87;;;16.97;;
44165;SDS011;30476;53.468;9.826;2022-11-15T05:34:52;22.40;;;17.10;;
44165;SDS011;30476;53.468;9.826;2022-11-15T05:37:19;25.10;;;16.93;;
44165;SDS011;30476;53.468;9.826;2022-11-15T05:39:45;25.67;;;17.63;;
44165;SDS011;30476;53.468;9.826;2022-11-15T05:42:11;24.83;;;17.03;;
44165;SDS011;30476;53.468;9.826;2022-11-15T05:44:39;23.50;;;16.40;;
44165;SDS011;30476;53.468;9.826;2022-11-15T05:47:09;23.73;;;19.37;;
44165;SDS011;30476;53.468;9.826;2022-11-15T05:49:39;25.47;;;17.37;;
44165;SDS011;30476;53.468;9.826;2022-11-15T05:52:08;21.40;;;16.50;;
44165;SDS011;30476;53.468;9.826;2022-11-15T05:54:37;17.83;;;14.30;;
44165;SDS011;30476;53.468;9.826;2022-11-15T05:57:04;17.97;;;13.20;;
44165;SDS011;30476;53.468;9.826;2022-11-15T05:59:30;21.73;;;14.70;;
44165;SDS011;30476;53.468;9.826;2022-11-15T06:01:58;18.93;;;13.90;;
44165;SDS011;30476;53.468;9.826;2022-11-15T06:04:24;17.43;;;12.17;;
44165;SDS011;30476;53.468;9.826;2022-11-15T06:06:50;17.97;;;12.97;;
44165;SDS011;30476;53.468;9.826;2022-11-15T06:09:16;16.30;;;13.03;;
44165;SDS011;30476;53.468;9.826;2022-11-15T06:11:42;17.67;;;12.70;;
44165;SDS011;30476;53.468;9.826;2022-11-15T06:14:07;19.17;;;13.30;;
44165;SDS011;30476;53.468;9.826;2022-11-15T06:16:33;14.00;;;11.80;;
44165;SDS011;30476;53.468;9.826;2022-11-15T06:18:59;15.73;;;12.83;;
44165;SDS011;30476;53.468;9.826;2022-11-15T06:21:26;17.37;;;11.97;;
44165;SDS011;30476;53.468;9.826;2022-11-15T06:23:53;17.80;;;12.57;;
44165;SDS011;30476;53.468;9.826;2022-11-15T06:26:19;18.60;;;11.90;;
44165;SDS011;30476;53.468;9.826;2022-11-15T06:28:45;16.10;;;11.90;;
44165;SDS011;30476;53.468;9.826;2022-11-15T06:31:11;17.27;;;12.77;;
44165;SDS011;30476;53.468;9.826;2022-11-15T06:33:37;14.20;;;12.30;;
44165;SDS011;30476;53.468;9.826;2022-11-15T06:36:04;16.40;;;13.27;;
44165;SDS011;30476;53.468;9.826;2022-11-15T06:38:32;17.77;;;13.63;;
44165;SDS011;30476;53.468;9.826;2022-11-15T06:41:02;18.90;;;13.67;;
44165;SDS011;30476;53.468;9.826;2022-11-15T06:43:29;19.53;;;13.30;;
44165;SDS011;30476;53.468;9.826;2022-11-15T06:45:55;17.57;;;14.07;;
44165;SDS011;30476;53.468;9.826;2022-11-15T06:48:22;14.17;;;12.50;;
44165;SDS011;30476;53.468;9.826;2022-11-15T06:50:51;15.07;;;11.30;;
44165;SDS011;30476;53.468;9.826;2022-11-15T06:53:18;17.63;;;11.30;;
44165;SDS011;30476;53.468;9.826;2022-11-15T06:55:43;14.67;;;11.17;;
44165;SDS011;30476;53.468;9.826;2022-11-15T06:58:09;15.43;;;12.50;;
44165;SDS011;30476;53.468;9.826;2022-11-15T07:00:35;15.13;;;11.53;;
44165;SDS011;30476;53.468;9.826;2022-11-15T07:03:01;15.37;;;12.40;;
44165;SDS011;30476;53.468;9.826;2022-11-15T07:05:28;12.60;;;11.00;;
44165;SDS011;30476;53.468;9.826;2022-11-15T07:07:54;13.13;;;11.73;;
44165;SDS011;30476;53.468;9.826;2022-11-15T07:10:22;11.87;;;10.67;;
44165;SDS011;30476;53.468;9.826;2022-11-15T07:12:52;15.60;;;11.60;;
44165;SDS011;30476;53.468;9.826;2022-11-15T07:15:20;14.30;;;11.47;;
44165;SDS011;30476;53.468;9.826;2022-11-15T07:17:47;15.57;;;12.70;;
44165;SDS011;30476;53.468;9.826;2022-11-15T07:20:13;16.00;;;12.10;;
44165;SDS011;30476;53.468;9.826;2022-11-15T07:22:40;18.23;;;12.67;;
44165;SDS011;30476;53.468;9.826;2022-11-15T07:25:06;13.57;;;11.53;;
44165;SDS011;30476;53.468;9.826;2022-11-15T07:27:32;15.47;;;13.63;;
44165;SDS011;30476;53.468;9.826;2022-11-15T07:29:58;17.50;;;13.60;;
44165;SDS011;30476;53.468;9.826;2022-11-15T07:32:24;13.17;;;11.60;;
44165;SDS011;30476;53.468;9.826;2022-11-15T07:34:50;16.10;;;12.43;;
44165;SDS011;30476;53.468;9.826;2022-11-15T07:37:16;16.80;;;12.23;;
44165;SDS011;30476;53.468;9.826;2022-11-15T07:39:42;16.07;;;13.33;;
44165;SDS011;30476;53.468;9.826;2022-11-15T07:42:08;14.90;;;12.20;;
44165;SDS011;30476;53.468;9.826;2022-11-15T07:45:13;14.10;;;11.77;;
44165;SDS011;30476;53.468;9.826;2022-11-15T07:47:39;14.53;;;11.80;;
44165;SDS011;30476;53.468;9.826;2022-11-15T07:50:04;15.97;;;11.90;;
44165;SDS011;30476;53.468;9.826;2022-11-15T07:52:30;15.40;;;13.40;;
44165;SDS011;30476;53.468;9.826;2022-11-15T07:54:56;13.80;;;12.37;;
44165;SDS011;30476;53.468;9.826;2022-11-15T07:57:22;14.63;;;12.50;;
44165;SDS011;30476;53.468;9.826;2022-11-15T07:59:48;15.47;;;13.40;;
44165;SDS011;30476;53.468;9.826;2022-11-15T08:02:13;16.73;;;13.10;;
44165;SDS011;30476;53.468;9.826;2022-11-15T08:04:42;16.03;;;13.03;;
44165;SDS011;30476;53.468;9.826;2022-11-15T08:07:09;15.70;;;12.13;;
44165;SDS011;30476;53.468;9.826;2022-11-15T08:09:34;16.73;;;11.93;;
44165;SDS011;30476;53.468;9.826;2022-11-15T08:12:00;15.77;;;12.00;;
44165;SDS011;30476;53.468;9.826;2022-11-15T08:14:26;13.97;;;11.40;;
44165;SDS011;30476;53.468;9.826;2022-11-15T08:16:52;15.23;;;11.80;;
44165;SDS011;30476;53.468;9.826;2022-11-15T08:19:19;15.23;;;12.10;;
44165;SDS011;30476;53.468;9.826;2022-11-15T08:21:45;19.47;;;12.50;;
44165;SDS011;30476;53.468;9.826;2022-11-15T08:24:11;13.00;;;11.60;;
44165;SDS011;30476;53.468;9.826;2022-11-15T08:26:36;17.07;;;12.03;;
44165;SDS011;30476;53.468;9.826;2022-11-15T08:29:02;15.20;;;13.10;;
44165;SDS011;30476;53.468;9.826;2022-11-15T08:31:28;15.80;;;12.93;;
44165;SDS011;30476;53.468;9.826;2022-11-15T08:33:54;13.50;;;11.90;;
44165;SDS011;30476;53.468;9.826;2022-11-15T08:36:20;14.43;;;11.90;;
44165;SDS011;30476;53.468;9.826;2022-11-15T08:38:46;14.20;;;12.23;;
44165;SDS011;30476;53.468;9.826;2022-11-15T08:41:13;14.80;;;11.37;;
44165;SDS011;30476;53.468;9.826;2022-11-15T08:43:49;14.47;;;12.63;;
44165;SDS011;30476;53.468;9.826;2022-11-15T08:46:14;14.13;;;11.93;;
44165;SDS011;30476;53.468;9.826;2022-11-15T08:48:40;14.00;;;11.53;;
44165;SDS011;30476;53.468;9.826;2022-11-15T08:51:06;14.77;;;12.47;;
44165;SDS011;30476;53.468;9.826;2022-11-15T08:53:31;15.63;;;12.90;;
44165;SDS011;30476;53.468;9.826;2022-11-15T08:55:57;15.10;;;12.70;;
44165;SDS011;30476;53.468;9.826;2022-11-15T08:58:23;16.50;;;12.60;;
44165;SDS011;30476;53.468;9.826;2022-11-15T09:00:49;13.87;;;11.93;;
44165;SDS011;30476;53.468;9.826;2022-11-15T09:03:15;14.50;;;12.13;;
44165;SDS011;30476;53.468;9.826;2022-11-15T09:05:40;14.60;;;11.00;;
44165;SDS011;30476;53.468;9.826;2022-11-15T09:08:07;14.37;;;12.00;;
44165;SDS011;30476;53.468;9.826;2022-11-15T09:10:33;12.93;;;11.03;;
44165;SDS011;30476;53.468;9.826;2022-11-15T09:12:59;13.13;;;10.63;;
44165;SDS011;30476;53.468;9.826;2022-11-15T09:15:25;13.23;;;10.13;;
44165;SDS011;30476;53.468;9.826;2022-11-15T09:17:51;11.23;;;9.77;;
44165;SDS011;30476;53.468;9.826;2022-11-15T09:20:17;10.23;;;9.23;;
44165;SDS011;30476;53.468;9.826;2022-11-15T09:22:42;11.90;;;9.70;;
44165;SDS011;30476;53.468;9.826;2022-11-15T09:25:08;12.00;;;10.80;;
44165;SDS011;30476;53.468;9.826;2022-11-15T09:27:34;12.47;;;10.03;;
44165;SDS011;30476;53.468;9.826;2022-11-15T09:30:00;11.23;;;9.87;;
44165;SDS011;30476;53.468;9.826;2022-11-15T09:32:29;12.10;;;9.57;;
44165;SDS011;30476;53.468;9.826;2022-11-15T09:34:55;11.53;;;10.33;;
44165;SDS011;30476;53.468;9.826;2022-11-15T09:37:21;11.33;;;10.23;;
44165;SDS011;30476;53.468;9.826;2022-11-15T09:39:47;11.50;;;10.30;;
44165;SDS011;30476;53.468;9.826;2022-11-15T09:44:59;10.23;;;9.10;;
44165;SDS011;30476;53.468;9.826;2022-11-15T09:50:46;9.17;;;8.27;;
44165;SDS011;30476;53.468;9.826;2022-11-15T09:53:19;10.20;;;8.70;;
44165;SDS011;30476;53.468;9.826;2022-11-15T09:56:05;10.63;;;9.53;;
44165;SDS011;30476;53.468;9.826;2022-11-15T10:04:26;10.97;;;9.17;;
44165;SDS011;30476;53.468;9.826;2022-11-15T10:07:03;11.77;;;9.60;;
44165;SDS011;30476;53.468;9.826;2022-11-15T10:09:47;12.90;;;11.10;;
44165;SDS011;30476;53.468;9.826;2022-11-15T10:12:18;11.47;;;10.37;;
44165;SDS011;30476;53.468;9.826;2022-11-15T10:14:45;11.07;;;9.83;;
44165;SDS011;30476;53.468;9.826;2022-11-15T10:17:21;10.47;;;9.37;;
44165;SDS011;30476;53.468;9.826;2022-11-15T10:22:27;10.37;;;9.20;;
44165;SDS011;30476;53.468;9.826;2022-11-15T10:27:55;11.30;;;10.13;;
44165;SDS011;30476;53.468;9.826;2022-11-15T10:30:23;11.83;;;10.60;;
44165;SDS011;30476;53.468;9.826;2022-11-15T10:33:00;10.47;;;9.37;;
44165;SDS011;30476;53.468;9.826;2022-11-15T10:36:13;10.87;;;9.77;;
44165;SDS011;30476;53.468;9.826;2022-11-15T10:39:02;13.23;;;11.23;;
44165;SDS011;30476;53.468;9.826;2022-11-15T10:46:27;10.97;;;9.70;;
44165;SDS011;30476;53.468;9.826;2022-11-15T10:48:53;13.27;;;9.67;;
44165;SDS011;30476;53.468;9.826;2022-11-15T10:51:39;10.67;;;9.67;;
44165;SDS011;30476;53.468;9.826;2022-11-15T10:54:07;12.70;;;10.77;;
44165;SDS011;30476;53.468;9.826;2022-11-15T10:56:38;11.47;;;9.73;;
44165;SDS011;30476;53.468;9.826;2022-11-15T10:59:07;12.07;;;9.57;;
44165;SDS011;30476;53.468;9.826;2022-11-15T11:01:48;10.40;;;9.10;;
44165;SDS011;30476;53.468;9.826;2022-11-15T11:04:14;11.50;;;10.33;;
44165;SDS011;30476;53.468;9.826;2022-11-15T11:06:50;10.40;;;9.33;;
44165;SDS011;30476;53.468;9.826;2022-11-15T11:09:21;11.80;;;10.60;;
44165;SDS011;30476;53.468;9.826;2022-11-15T11:11:58;13.67;;;10.97;;
44165;SDS011;30476;53.468;9.826;2022-11-15T11:14:27;13.23;;;9.97;;
44165;SDS011;30476;53.468;9.826;2022-11-15T11:17:03;15.27;;;13.23;;
44165;SDS011;30476;53.468;9.826;2022-11-15T11:22:38;12.13;;;10.47;;
44165;SDS011;30476;53.468;9.826;2022-11-15T11:25:23;12.40;;;11.10;;
44165;SDS011;30476;53.468;9.826;2022-11-15T11:28:06;9.17;;;8.27;;
44165;SDS011;30476;53.468;9.826;2022-11-15T11:33:48;11.10;;;9.83;;
44165;SDS011;30476;53.468;9.826;2022-11-15T11:36:39;12.57;;;8.57;;
44165;SDS011;30476;53.468;9.826;2022-11-15T11:39:37;14.23;;;9.80;;
44165;SDS011;30476;53.468;9.826;2022-11-15T11:45:15;10.33;;;8.50;;
44165;SDS011;30476;53.468;9.826;2022-11-15T11:51:02;8.60;;;7.80;;
44165;SDS011;30476;53.468;9.826;2022-11-15T11:53:41;8.57;;;7.77;;
44165;SDS011;30476;53.468;9.826;2022-11-15T11:56:25;8.63;;;7.50;;
44165;SDS011;30476;53.468;9.826;2022-11-15T11:58:54;11.07;;;7.50;;
44165;SDS011;30476;53.468;9.826;2022-11-15T12:01:36;7.50;;;6.80;;
44165;SDS011;30476;53.468;9.826;2022-11-15T12:04:11;8.50;;;7.80;;
44165;SDS011;30476;53.468;9.826;2022-11-15T12:17:11;8.07;;;7.37;;
44165;SDS011;30476;53.468;9.826;2022-11-15T12:19:38;7.37;;;6.70;;
44165;SDS011;30476;53.468;9.826;2022-11-15T12:24:45;8.57;;;7.17;;
44165;SDS011;30476;53.468;9.826;2022-11-15T12:27:18;7.37;;;6.70;;
44165;SDS011;30476;53.468;9.826;2022-11-15T12:29:53;7.63;;;6.93;;
44165;SDS011;30476;53.468;9.826;2022-11-15T12:32:25;8.10;;;7.30;;
44165;SDS011;30476;53.468;9.826;2022-11-15T12:34:56;7.20;;;6.50;;
44165;SDS011;30476;53.468;9.826;2022-11-15T12:43:04;7.30;;;6.60;;
44165;SDS011;30476;53.468;9.826;2022-11-15T12:45:37;7.67;;;6.67;;
44165;SDS011;30476;53.468;9.826;2022-11-15T12:58:43;6.60;;;6.10;;
44165;SDS011;30476;53.468;9.826;2022-11-15T13:04:43;6.40;;;5.80;;
44165;SDS011;30476;53.468;9.826;2022-11-15T13:06:47;7.30;;;5.73;;
44165;SDS011;30476;53.468;9.826;2022-11-15T13:11:59;7.13;;;6.50;;
44165;SDS011;30476;53.468;9.826;2022-11-15T13:19:45;6.83;;;6.17;;
44165;SDS011;30476;53.468;9.826;2022-11-15T13:22:13;7.43;;;6.73;;
44165;SDS011;30476;53.468;9.826;2022-11-15T13:24:58;7.10;;;6.47;;
44165;SDS011;30476;53.468;9.826;2022-11-15T13:27:26;6.27;;;5.77;;
44165;SDS011;30476;53.468;9.826;2022-11-15T13:29:52;7.40;;;6.80;;
44165;SDS011;30476;53.468;9.826;2022-11-15T13:32:18;6.93;;;5.70;;
44165;SDS011;30476;53.468;9.826;2022-11-15T13:34:46;7.93;;;7.13;;
44165;SDS011;30476;53.468;9.826;2022-11-15T13:39:46;7.00;;;6.37;;
44165;SDS011;30476;53.468;9.826;2022-11-15T13:42:17;9.47;;;7.53;;
44165;SDS011;30476;53.468;9.826;2022-11-15T13:44:56;8.27;;;6.63;;
44165;SDS011;30476;53.468;9.826;2022-11-15T13:47:27;7.90;;;7.17;;
44165;SDS011;30476;53.468;9.826;2022-11-15T13:49:58;8.10;;;6.90;;
44165;SDS011;30476;53.468;9.826;2022-11-15T13:52:31;7.63;;;7.03;;
44165;SDS011;30476;53.468;9.826;2022-11-15T13:55:05;8.73;;;7.93;;
44165;SDS011;30476;53.468;9.826;2022-11-15T13:57:46;7.93;;;7.07;;
44165;SDS011;30476;53.468;9.826;2022-11-15T14:03:22;7.33;;;6.63;;
44165;SDS011;30476;53.468;9.826;2022-11-15T14:08:37;8.30;;;7.40;;
44165;SDS011;30476;53.468;9.826;2022-11-15T14:11:22;8.07;;;7.27;;
44165;SDS011;30476;53.468;9.826;2022-11-15T14:16:45;8.40;;;7.17;;
44165;SDS011;30476;53.468;9.826;2022-11-15T14:19:33;8.73;;;7.80;;
44165;SDS011;30476;53.468;9.826;2022-11-15T14:22:19;8.60;;;7.87;;
44165;SDS011;30476;53.468;9.826;2022-11-15T14:24:47;8.23;;;7.50;;
44165;SDS011;30476;53.468;9.826;2022-11-15T14:27:29;8.13;;;7.33;;
44165;SDS011;30476;53.468;9.826;2022-11-15T14:29:55;8.50;;;7.73;;
44165;SDS011;30476;53.468;9.826;2022-11-15T14:32:21;8.37;;;7.67;;
44165;SDS011;30476;53.468;9.826;2022-11-15T14:34:49;9.17;;;8.27;;
44165;SDS011;30476;53.468;9.826;2022-11-15T14:37:30;9.23;;;8.17;;
44165;SDS011;30476;53.468;9.826;2022-11-15T14:40:01;8.50;;;7.27;;
44165;SDS011;30476;53.468;9.826;2022-11-15T14:42:29;8.33;;;7.53;;
44165;SDS011;30476;53.468;9.826;2022-11-15T14:44:54;8.07;;;7.33;;
44165;SDS011;30476;53.468;9.826;2022-11-15T14:47:21;8.77;;;7.87;;
44165;SDS011;30476;53.468;9.826;2022-11-15T14:49:46;8.30;;;7.47;;
44165;SDS011;30476;53.468;9.826;2022-11-15T14:52:33;7.70;;;7.00;;
44165;SDS011;30476;53.468;9.826;2022-11-15T14:55:00;7.43;;;6.73;;
44165;SDS011;30476;53.468;9.826;2022-11-15T14:57:36;8.03;;;7.30;;
44165;SDS011;30476;53.468;9.826;2022-11-15T15:00:02;8.07;;;7.30;;
44165;SDS011;30476;53.468;9.826;2022-11-15T15:02:28;9.50;;;8.70;;
44165;SDS011;30476;53.468;9.826;2022-11-15T15:04:54;9.87;;;8.73;;
44165;SDS011;30476;53.468;9.826;2022-11-15T15:07:20;8.50;;;7.63;;
44165;SDS011;30476;53.468;9.826;2022-11-15T15:09:47;9.50;;;8.50;;
44165;SDS011;30476;53.468;9.826;2022-11-15T15:12:16;8.37;;;7.50;;
44165;SDS011;30476;53.468;9.826;2022-11-15T15:14:44;10.00;;;7.80;;
44165;SDS011;30476;53.468;9.826;2022-11-15T15:17:10;8.00;;;7.20;;
44165;SDS011;30476;53.468;9.826;2022-11-15T15:19:36;8.97;;;8.07;;
44165;SDS011;30476;53.468;9.826;2022-11-15T15:22:02;9.10;;;8.20;;
44165;SDS011;30476;53.468;9.826;2022-11-15T15:24:28;8.60;;;7.80;;
44165;SDS011;30476;53.468;9.826;2022-11-15T15:26:54;8.07;;;7.27;;
44165;SDS011;30476;53.468;9.826;2022-11-15T15:29:19;8.80;;;7.50;;
44165;SDS011;30476;53.468;9.826;2022-11-15T15:31:45;9.53;;;8.17;;
44165;SDS011;30476;53.468;9.826;2022-11-15T15:34:11;7.90;;;7.13;;
44165;SDS011;30476;53.468;9.826;2022-11-15T15:36:37;7.83;;;7.13;;
44165;SDS011;30476;53.468;9.826;2022-11-15T15:39:03;8.33;;;7.60;;
44165;SDS011;30476;53.468;9.826;2022-11-15T15:41:28;7.87;;;7.10;;
44165;SDS011;30476;53.468;9.826;2022-11-15T15:43:54;11.80;;;10.63;;
44165;SDS011;30476;53.468;9.826;2022-11-15T15:46:20;18.43;;;14.63;;
44165;SDS011;30476;53.468;9.826;2022-11-15T15:48:46;27.03;;;21.27;;
44165;SDS011;30476;53.468;9.826;2022-11-15T15:51:12;28.60;;;20.40;;
44165;SDS011;30476;53.468;9.826;2022-11-15T15:53:37;17.70;;;15.80;;
44165;SDS011;30476;53.468;9.826;2022-11-15T15:56:04;29.07;;;26.70;;
44165;SDS011;30476;53.468;9.826;2022-11-15T15:58:33;14.87;;;13.47;;
44165;SDS011;30476;53.468;9.826;2022-11-15T16:00:59;15.23;;;11.80;;
44165;SDS011;30476;53.468;9.826;2022-11-15T16:03:25;13.13;;;11.77;;
44165;SDS011;30476;53.468;9.826;2022-11-15T16:05:53;12.20;;;11.03;;
44165;SDS011;30476;53.468;9.826;2022-11-15T16:08:20;11.43;;;9.80;;
44165;SDS011;30476;53.468;9.826;2022-11-15T16:10:47;12.50;;;10.80;;
44165;SDS011;30476;53.468;9.826;2022-11-15T16:13:14;12.60;;;10.90;;
44165;SDS011;30476;53.468;9.826;2022-11-15T16:15:39;13.00;;;11.57;;
44165;SDS011;30476;53.468;9.826;2022-11-15T16:18:08;14.37;;;12.90;;
44165;SDS011;30476;53.468;9.826;2022-11-15T16:20:41;14.10;;;12.60;;
44165;SDS011;30476;53.468;9.826;2022-11-15T16:23:12;14.73;;;13.10;;
44165;SDS011;30476;53.468;9.826;2022-11-15T16:25:41;13.10;;;11.90;;
44165;SDS011;30476;53.468;9.826;2022-11-15T16:28:17;11.23;;;9.47;;
44165;SDS011;30476;53.468;9.826;2022-11-15T16:31:10;11.47;;;9.87;;
44165;SDS011;30476;53.468;9.826;2022-11-15T16:33:36;13.80;;;10.90;;
44165;SDS011;30476;53.468;9.826;2022-11-15T16:36:03;11.67;;;10.63;;
44165;SDS011;30476;53.468;9.826;2022-11-15T16:38:31;12.20;;;11.00;;
44165;SDS011;30476;53.468;9.826;2022-11-15T16:40:57;11.57;;;10.37;;
44165;SDS011;30476;53.468;9.826;2022-11-15T16:43:23;10.53;;;9.53;;
44165;SDS011;30476;53.468;9.826;2022-11-15T16:45:49;12.13;;;10.37;;
44165;SDS011;30476;53.468;9.826;2022-11-15T16:48:22;11.63;;;10.53;;